Time;durP1;ratioP1;P1;durP2;ratioP2;P2;SDS_P1;SDS_P2;PMS_P1;PMS_P2;Temp;Humidity;BMP_temperature;BMP_pressure;BME280_temperature;BME280_humidity;BME280_pressure;Samples;Min_cycle;Max_cycle;Signal;HPM_P1;HPM_P2
2022/07/25 00:00:34;;;;;;;8.03;6.33;;;26.10;57.70;;;;;;5029379;28;20224;-72
2022/07/25 00:03:00;;;;;;;8.60;6.97;;;26.10;57.70;;;;;;5045325;28;20454;-71
2022/07/25 00:05:26;;;;;;;5.77;5.27;;;26.00;57.70;;;;;;5041696;28;20472;-70
2022/07/25 00:07:52;;;;;;;6.40;5.80;;;26.00;57.90;;;;;;5055184;28;21030;-70
2022/07/25 00:10:18;;;;;;;6.47;5.87;;;26.00;57.80;;;;;;5041059;28;20254;-70
2022/07/25 00:12:44;;;;;;;6.23;5.63;;;26.00;57.80;;;;;;5047635;28;20460;-71
2022/07/25 00:15:13;;;;;;;6.63;6.03;;;25.90;58.00;;;;;;5040665;28;20220;-70
2022/07/25 00:17:39;;;;;;;5.60;5.07;;;25.90;58.00;;;;;;5048017;28;20445;-70
2022/07/25 00:20:06;;;;;;;6.90;6.00;;;25.90;58.00;;;;;;5049568;28;20481;-71
2022/07/25 00:22:31;;;;;;;6.10;5.50;;;25.90;57.90;;;;;;5049293;28;20457;-68
2022/07/25 00:24:57;;;;;;;6.53;5.97;;;25.80;58.00;;;;;;5047395;28;20458;-70
2022/07/25 00:27:23;;;;;;;7.77;6.00;;;25.80;58.00;;;;;;5047909;28;20211;-70
2022/07/25 00:29:49;;;;;;;6.03;5.53;;;25.80;58.10;;;;;;5031424;28;20669;-70
2022/07/25 00:32:15;;;;;;;6.70;6.10;;;25.70;58.10;;;;;;5025322;28;20255;-70
2022/07/25 00:34:41;;;;;;;7.20;6.13;;;25.70;58.20;;;;;;5048136;28;20229;-70
2022/07/25 00:37:06;;;;;;;6.60;5.90;;;25.70;58.20;;;;;;5049023;28;20264;-69
2022/07/25 00:39:32;;;;;;;6.00;5.53;;;25.60;58.20;;;;;;5042813;28;20223;-69
2022/07/25 00:41:58;;;;;;;7.70;6.63;;;25.60;58.10;;;;;;5026569;28;20224;-69
2022/07/25 00:44:29;;;;;;;7.23;6.30;;;25.60;58.20;;;;;;5038658;28;20223;-70
2022/07/25 00:46:55;;;;;;;5.80;5.30;;;25.50;58.30;;;;;;5039397;28;20231;-70
2022/07/25 00:49:23;;;;;;;7.07;6.23;;;25.50;58.50;;;;;;5013860;28;20475;-70
2022/07/25 00:51:49;;;;;;;7.40;6.70;;;25.40;58.50;;;;;;5047659;28;20502;-70
2022/07/25 00:54:15;;;;;;;6.90;6.20;;;25.40;58.50;;;;;;5042993;28;20524;-71
2022/07/25 00:56:41;;;;;;;10.63;5.97;;;25.40;58.60;;;;;;5029583;28;20446;-71
2022/07/25 00:59:08;;;;;;;6.10;5.50;;;25.30;58.50;;;;;;5051000;28;20218;-71
2022/07/25 01:01:34;;;;;;;6.57;5.97;;;25.20;58.70;;;;;;5051785;28;20929;-70
2022/07/25 01:04:01;;;;;;;6.90;6.00;;;25.10;58.80;;;;;;5067684;28;20543;-71
2022/07/25 01:06:27;;;;;;;6.23;5.67;;;25.10;58.80;;;;;;5046200;28;20450;-70
2022/07/25 01:08:54;;;;;;;6.73;6.13;;;25.00;58.80;;;;;;5044077;28;20817;-71
2022/07/25 01:11:21;;;;;;;6.40;5.80;;;24.90;59.10;;;;;;5052108;28;20560;-70
2022/07/25 01:13:47;;;;;;;6.87;6.27;;;24.80;59.20;;;;;;5057230;28;20972;-71
2022/07/25 01:16:13;;;;;;;7.10;6.50;;;24.90;59.30;;;;;;5048914;28;20441;-70
2022/07/25 01:18:39;;;;;;;7.00;6.40;;;24.90;59.10;;;;;;5067008;28;20214;-70
2022/07/25 01:21:05;;;;;;;8.00;7.20;;;25.00;59.10;;;;;;5082987;28;20275;-71
2022/07/25 01:23:31;;;;;;;6.93;6.30;;;25.00;59.10;;;;;;5050292;28;20473;-71
2022/07/25 01:25:56;;;;;;;7.07;6.47;;;24.90;59.20;;;;;;5032812;28;20215;-70
2022/07/25 01:28:22;;;;;;;6.97;6.00;;;24.90;59.20;;;;;;5053196;28;20555;-69
2022/07/25 01:30:48;;;;;;;8.27;6.13;;;24.90;59.50;;;;;;5065465;28;20214;-70
2022/07/25 01:33:18;;;;;;;6.70;6.10;;;24.90;59.00;;;;;;5033772;28;20237;-72
2022/07/25 01:35:45;;;;;;;6.80;6.30;;;24.90;59.10;;;;;;5065544;28;20301;-70
2022/07/25 01:38:12;;;;;;;6.83;6.23;;;24.90;59.00;;;;;;5083383;28;20452;-71
2022/07/25 01:40:39;;;;;;;7.70;6.90;;;24.80;59.00;;;;;;5078790;28;20444;-70
2022/07/25 01:43:05;;;;;;;10.93;6.07;;;24.80;59.00;;;;;;5051628;28;20958;-70
2022/07/25 01:45:31;;;;;;;7.30;6.60;;;24.80;59.00;;;;;;5066228;28;20445;-71
2022/07/25 01:47:56;;;;;;;8.63;6.00;;;24.80;59.10;;;;;;5063809;28;21004;-70
2022/07/25 01:50:22;;;;;;;5.83;5.33;;;24.80;59.20;;;;;;5072079;28;20710;-71
2022/07/25 01:52:48;;;;;;;7.17;6.57;;;24.70;59.10;;;;;;5048973;28;20257;-70
2022/07/25 01:55:14;;;;;;;6.90;6.20;;;24.70;59.30;;;;;;5050986;28;20218;-71
2022/07/25 01:57:40;;;;;;;7.20;6.40;;;24.70;59.30;;;;;;5053014;28;20222;-71
2022/07/25 02:00:09;;;;;;;7.07;6.37;;;24.60;59.30;;;;;;5053240;28;20758;-70
2022/07/25 02:02:40;;;;;;;7.70;6.97;;;24.60;59.40;;;;;;5037599;28;20479;-70
2022/07/25 02:05:07;;;;;;;6.77;6.17;;;24.50;59.40;;;;;;5042308;28;20448;-70
2022/07/25 02:07:33;;;;;;;6.97;6.27;;;24.50;59.80;;;;;;5040794;28;20446;-70
2022/07/25 02:09:58;;;;;;;7.37;6.67;;;24.50;59.40;;;;;;5053648;28;20470;-70
2022/07/25 02:12:24;;;;;;;7.23;6.57;;;24.50;59.40;;;;;;5029414;28;20460;-71
2022/07/25 02:14:50;;;;;;;7.10;6.30;;;24.40;59.30;;;;;;5050852;28;20221;-70
2022/07/25 02:17:16;;;;;;;6.80;6.20;;;24.50;59.50;;;;;;5046479;28;20558;-71
2022/07/25 02:19:41;;;;;;;7.10;6.40;;;24.30;59.50;;;;;;5043768;28;20214;-71
2022/07/25 02:22:07;;;;;;;6.40;5.90;;;24.30;59.60;;;;;;5038969;28;20596;-70
2022/07/25 02:24:33;;;;;;;6.27;5.70;;;24.30;59.70;;;;;;5022116;28;20229;-71
2022/07/25 02:26:59;;;;;;;6.83;6.17;;;24.30;59.60;;;;;;5046120;28;20461;-70
2022/07/25 02:29:25;;;;;;;7.57;6.87;;;24.30;59.60;;;;;;5031189;28;20247;-69
2022/07/25 02:31:53;;;;;;;7.43;6.73;;;24.30;59.70;;;;;;5023542;28;20298;-70
2022/07/25 02:34:19;;;;;;;8.43;6.57;;;24.20;59.70;;;;;;5057606;28;20218;-70
2022/07/25 02:36:44;;;;;;;7.50;6.70;;;24.20;59.70;;;;;;5055405;28;20536;-70
2022/07/25 02:39:10;;;;;;;7.27;6.57;;;24.20;59.60;;;;;;5034174;28;20245;-70
2022/07/25 02:41:36;;;;;;;10.80;6.87;;;24.20;59.80;;;;;;5021138;28;20314;-70
2022/07/25 02:44:03;;;;;;;7.80;6.43;;;24.10;59.70;;;;;;5041175;28;21130;-70
2022/07/25 02:46:29;;;;;;;7.93;7.23;;;24.10;59.80;;;;;;5062430;28;20232;-70
2022/07/25 02:48:54;;;;;;;6.97;6.37;;;24.10;59.80;;;;;;5034181;28;20481;-71
2022/07/25 02:51:20;;;;;;;7.53;6.83;;;24.10;59.90;;;;;;5050930;28;20222;-70
2022/07/25 02:53:46;;;;;;;7.60;6.80;;;24.10;59.90;;;;;;5052613;28;20226;-70
2022/07/25 02:56:12;;;;;;;7.50;6.80;;;24.10;59.90;;;;;;5051281;28;20221;-71
2022/07/25 02:58:37;;;;;;;7.33;6.63;;;24.00;59.80;;;;;;5055487;28;20213;-70
2022/07/25 03:01:03;;;;;;;9.30;7.20;;;24.00;60.10;;;;;;5053615;28;20223;-71
2022/07/25 03:03:29;;;;;;;7.83;7.00;;;24.00;60.10;;;;;;5059051;28;20312;-70
2022/07/25 03:05:55;;;;;;;7.87;7.07;;;23.90;60.00;;;;;;5035875;28;20214;-70
2022/07/25 03:08:21;;;;;;;9.07;8.17;;;23.90;60.10;;;;;;5054024;28;20219;-70
2022/07/25 03:10:46;;;;;;;7.60;6.37;;;23.90;60.10;;;;;;5071403;28;20252;-71
2022/07/25 03:13:12;;;;;;;8.63;7.80;;;23.90;60.00;;;;;;5051401;28;20313;-70
2022/07/25 03:15:38;;;;;;;8.03;7.23;;;23.80;60.10;;;;;;5054814;28;20221;-71
2022/07/25 03:18:04;;;;;;;9.10;6.87;;;23.80;60.20;;;;;;5075956;28;20226;-69
2022/07/25 03:20:29;;;;;;;10.33;7.30;;;23.80;60.30;;;;;;5035658;28;20225;-70
2022/07/25 03:22:55;;;;;;;9.37;7.03;;;23.80;60.20;;;;;;5052349;28;20241;-70
2022/07/25 03:25:21;;;;;;;9.07;7.70;;;23.80;60.40;;;;;;5051070;28;20746;-72
2022/07/25 03:27:46;;;;;;;8.53;7.60;;;23.70;60.40;;;;;;5036977;28;20271;-70
2022/07/25 03:30:12;;;;;;;7.97;6.83;;;23.70;61.50;;;;;;5053090;28;20229;-69
2022/07/25 03:32:39;;;;;;;10.20;6.73;;;23.70;60.90;;;;;;5052730;28;20234;-70
2022/07/25 03:35:06;;;;;;;7.87;7.13;;;23.60;60.90;;;;;;5033219;28;20251;-71
2022/07/25 03:37:32;;;;;;;7.40;6.70;;;23.60;61.20;;;;;;5032707;28;20521;-70
2022/07/25 03:39:58;;;;;;;7.37;6.67;;;23.50;61.40;;;;;;5049846;28;20595;-70
2022/07/25 03:42:23;;;;;;;7.30;6.60;;;23.50;62.00;;;;;;5013549;28;20247;-70
2022/07/25 03:44:49;;;;;;;8.07;7.30;;;23.40;62.00;;;;;;5041528;28;20239;-71
2022/07/25 03:47:15;;;;;;;8.53;7.60;;;23.40;62.40;;;;;;5038464;28;20223;-70
2022/07/25 03:49:40;;;;;;;7.67;6.33;;;23.30;62.50;;;;;;5037012;28;20264;-70
2022/07/25 03:52:06;;;;;;;9.50;8.60;;;23.30;62.50;;;;;;5049580;28;20234;-70
2022/07/25 03:54:32;;;;;;;8.77;7.47;;;23.20;63.00;;;;;;5034887;28;20301;-70
2022/07/25 03:56:58;;;;;;;9.50;7.77;;;23.20;64.10;;;;;;5062702;28;20217;-70
2022/07/25 03:59:23;;;;;;;8.40;6.90;;;23.20;63.10;;;;;;5070321;28;20706;-70
2022/07/25 04:01:50;;;;;;;7.70;7.00;;;23.20;63.10;;;;;;5054437;28;20253;-70
2022/07/25 04:04:16;;;;;;;8.33;7.53;;;23.20;62.70;;;;;;5057693;28;20717;-69
2022/07/25 04:06:42;;;;;;;7.20;6.60;;;23.30;62.70;;;;;;5050063;28;20459;-70
2022/07/25 04:09:09;;;;;;;8.70;7.80;;;23.30;62.80;;;;;;5051656;28;20502;-71
2022/07/25 04:11:37;;;;;;;7.40;6.77;;;23.30;62.60;;;;;;5055317;28;20521;-71
2022/07/25 04:14:03;;;;;;;7.90;7.10;;;23.30;62.90;;;;;;5071464;28;20448;-72
2022/07/25 04:16:29;;;;;;;9.10;7.47;;;23.30;62.70;;;;;;5043569;28;20459;-70
2022/07/25 04:18:56;;;;;;;8.77;8.00;;;23.30;62.80;;;;;;5070240;28;20544;-70
2022/07/25 04:21:22;;;;;;;7.97;7.13;;;23.20;63.10;;;;;;5052689;28;20518;-70
2022/07/25 04:23:48;;;;;;;8.93;6.77;;;23.20;63.40;;;;;;5050806;28;21032;-70
2022/07/25 04:26:14;;;;;;;7.50;6.90;;;23.20;63.50;;;;;;5057165;28;20453;-70
2022/07/25 04:28:40;;;;;;;8.40;7.47;;;23.20;63.00;;;;;;5052795;28;20456;-70
2022/07/25 04:31:06;;;;;;;8.20;7.40;;;23.20;62.80;;;;;;5050008;28;20588;-70
2022/07/25 04:33:31;;;;;;;7.67;6.87;;;23.20;63.60;;;;;;5049895;28;20214;-70
2022/07/25 04:35:57;;;;;;;8.97;7.50;;;23.20;63.00;;;;;;5052610;28;20254;-71
2022/07/25 04:38:23;;;;;;;7.80;7.10;;;23.20;63.20;;;;;;5059729;28;20226;-71
2022/07/25 04:40:48;;;;;;;7.40;6.67;;;23.20;63.50;;;;;;5052552;28;20217;-71
2022/07/25 04:43:14;;;;;;;8.00;7.20;;;23.20;63.10;;;;;;5051051;28;20306;-71
2022/07/25 04:45:40;;;;;;;7.87;7.07;;;23.20;63.30;;;;;;5051785;28;20218;-72
2022/07/25 04:48:06;;;;;;;8.43;6.73;;;23.20;63.60;;;;;;5029877;28;20231;-70
2022/07/25 04:50:32;;;;;;;7.30;6.60;;;23.20;64.20;;;;;;5017738;28;20207;-71
2022/07/25 04:52:58;;;;;;;8.70;6.80;;;23.20;63.80;;;;;;5055608;28;20362;-71
2022/07/25 04:55:24;;;;;;;8.60;6.90;;;23.20;63.70;;;;;;5068973;28;20694;-71
2022/07/25 04:57:49;;;;;;;10.00;6.87;;;23.20;63.80;;;;;;5051340;28;20218;-71
2022/07/25 05:00:15;;;;;;;7.57;6.87;;;23.20;63.80;;;;;;5050082;28;20401;-71
2022/07/25 05:02:41;;;;;;;7.60;6.80;;;23.20;63.70;;;;;;5052768;28;20230;-71
2022/07/25 05:05:08;;;;;;;8.77;7.60;;;23.20;63.90;;;;;;5051494;28;20465;-71
2022/07/25 05:07:35;;;;;;;8.00;7.20;;;23.20;64.00;;;;;;5043716;28;20689;-71
2022/07/25 05:10:03;;;;;;;8.20;7.40;;;23.20;64.00;;;;;;5058278;28;20510;-71
2022/07/25 05:12:28;;;;;;;8.17;7.37;;;23.20;64.40;;;;;;5029847;28;20449;-72
2022/07/25 05:14:54;;;;;;;8.07;7.27;;;23.20;64.40;;;;;;5039062;28;20850;-71
2022/07/25 05:17:20;;;;;;;9.77;7.50;;;23.20;64.80;;;;;;5033637;28;20215;-71
2022/07/25 05:19:46;;;;;;;8.00;7.00;;;23.20;65.40;;;;;;5062443;28;20214;-71
2022/07/25 05:22:12;;;;;;;7.37;6.67;;;23.30;65.20;;;;;;5038704;28;20594;-71
2022/07/25 05:24:37;;;;;;;8.20;7.47;;;23.30;65.10;;;;;;5041416;28;20228;-72
2022/07/25 05:27:04;;;;;;;9.10;7.30;;;23.30;65.60;;;;;;5053235;28;20453;-71
2022/07/25 05:29:30;;;;;;;7.80;7.10;;;23.30;65.40;;;;;;5051251;28;20709;-71
2022/07/25 05:31:57;;;;;;;10.03;6.87;;;23.30;65.10;;;;;;5067585;28;21149;-71
2022/07/25 05:34:23;;;;;;;7.20;6.60;;;23.30;65.30;;;;;;5047167;28;20465;-72
2022/07/25 05:36:48;;;;;;;7.67;6.87;;;23.40;64.60;;;;;;5050303;28;20461;-71
2022/07/25 05:39:14;;;;;;;8.77;7.87;;;23.30;65.20;;;;;;5069120;28;21040;-71
2022/07/25 05:41:40;;;;;;;10.60;7.87;;;23.40;65.50;;;;;;5051425;28;20579;-71
2022/07/25 05:44:06;;;;;;;8.23;7.50;;;23.40;65.40;;;;;;5043838;28;20219;-71
2022/07/25 05:46:34;;;;;;;7.40;6.70;;;23.40;65.30;;;;;;5069160;28;20221;-73
2022/07/25 05:49:00;;;;;;;8.23;7.30;;;23.50;65.20;;;;;;5051697;28;20579;-71
2022/07/25 05:51:26;;;;;;;7.80;7.03;;;23.50;65.30;;;;;;5067882;28;20445;-72
2022/07/25 05:53:52;;;;;;;8.10;7.20;;;23.50;65.80;;;;;;5033310;28;20270;-71
2022/07/25 05:56:18;;;;;;;8.27;7.47;;;23.60;65.40;;;;;;5024170;28;20496;-71
2022/07/25 05:58:44;;;;;;;8.77;6.90;;;23.60;66.40;;;;;;5050492;28;20210;-71
2022/07/25 06:01:14;;;;;;;8.37;7.57;;;23.60;66.60;;;;;;5059338;28;20247;-71
2022/07/25 06:03:40;;;;;;;7.53;6.73;;;23.70;67.30;;;;;;5024589;28;20234;-71
2022/07/25 06:06:07;;;;;;;7.17;6.53;;;23.70;66.70;;;;;;5047919;28;20996;-72
2022/07/25 06:08:34;;;;;;;8.97;6.67;;;23.80;67.10;;;;;;5046577;28;20218;-71
2022/07/25 06:11:00;;;;;;;10.50;7.70;;;23.90;67.20;;;;;;5049937;28;20449;-72
2022/07/25 06:13:26;;;;;;;7.07;6.27;;;23.90;66.90;;;;;;5024942;28;20479;-72
2022/07/25 06:15:52;;;;;;;7.10;6.40;;;23.90;67.60;;;;;;5050378;28;20214;-71
2022/07/25 06:18:17;;;;;;;7.40;6.70;;;24.00;67.80;;;;;;5050613;28;20461;-71
2022/07/25 06:20:43;;;;;;;7.87;7.17;;;24.10;68.50;;;;;;5068620;28;20222;-72
2022/07/25 06:23:09;;;;;;;7.97;7.27;;;24.10;68.70;;;;;;5064333;28;20211;-71
2022/07/25 06:25:34;;;;;;;7.70;7.00;;;24.20;68.50;;;;;;5050925;28;20769;-71
2022/07/25 06:28:00;;;;;;;8.77;7.00;;;24.20;69.10;;;;;;5081660;28;20315;-71
2022/07/25 06:30:26;;;;;;;10.40;7.77;;;24.30;68.90;;;;;;5041882;28;20220;-71
2022/07/25 06:32:52;;;;;;;8.73;7.93;;;24.40;68.90;;;;;;5051346;28;20318;-71
2022/07/25 06:35:18;;;;;;;8.97;8.10;;;24.40;69.20;;;;;;5050900;28;20456;-71
2022/07/25 06:37:44;;;;;;;8.43;7.40;;;24.50;68.70;;;;;;5038071;28;20515;-71
2022/07/25 06:40:10;;;;;;;9.77;8.70;;;24.60;69.60;;;;;;5052083;28;20223;-71
2022/07/25 06:42:44;;;;;;;10.37;8.10;;;24.60;69.30;;;;;;5062404;28;20456;-70
2022/07/25 06:45:11;;;;;;;9.40;8.60;;;24.70;70.50;;;;;;5053089;28;20309;-71
2022/07/25 06:47:38;;;;;;;11.07;8.60;;;24.80;69.70;;;;;;5044800;28;20456;-71
2022/07/25 06:50:06;;;;;;;12.20;8.73;;;24.90;70.50;;;;;;5043886;28;20537;-71
2022/07/25 06:52:31;;;;;;;10.33;9.20;;;25.00;70.10;;;;;;5076959;28;21067;-71
2022/07/25 06:54:57;;;;;;;10.13;9.13;;;25.10;70.60;;;;;;5046282;28;20540;-71
2022/07/25 06:57:23;;;;;;;9.13;8.23;;;25.20;69.70;;;;;;5052059;28;20229;-72
2022/07/25 06:59:49;;;;;;;9.47;8.67;;;25.20;70.30;;;;;;5052928;28;20748;-71
2022/07/25 07:02:14;;;;;;;12.00;10.23;;;25.30;70.00;;;;;;5051787;28;20237;-71
2022/07/25 07:04:40;;;;;;;8.30;7.50;;;25.30;70.00;;;;;;5053197;28;20265;-71
2022/07/25 07:07:06;;;;;;;8.33;7.63;;;25.40;70.60;;;;;;5031941;28;20218;-71
2022/07/25 07:09:31;;;;;;;8.70;7.90;;;25.50;71.00;;;;;;5046545;28;21176;-71
2022/07/25 07:11:57;;;;;;;8.60;7.90;;;25.60;70.90;;;;;;5046634;28;20227;-71
2022/07/25 07:14:23;;;;;;;10.63;8.57;;;25.70;70.80;;;;;;5050432;28;20276;-72
2022/07/25 07:16:48;;;;;;;9.60;8.80;;;25.80;71.70;;;;;;5071466;28;20221;-72
2022/07/25 07:19:14;;;;;;;8.70;8.00;;;25.90;70.70;;;;;;5036807;28;20241;-71
2022/07/25 07:21:41;;;;;;;13.10;8.50;;;25.90;70.40;;;;;;5037786;28;20231;-72
2022/07/25 07:24:07;;;;;;;9.30;8.47;;;26.00;70.60;;;;;;5076324;28;20288;-71
2022/07/25 07:26:33;;;;;;;8.60;7.83;;;26.10;70.70;;;;;;5043501;28;20447;-71
2022/07/25 07:28:59;;;;;;;12.60;9.00;;;26.20;71.30;;;;;;5061722;28;21045;-71
2022/07/25 07:31:25;;;;;;;8.63;7.73;;;26.30;71.10;;;;;;5053561;28;20229;-72
2022/07/25 07:33:51;;;;;;;9.20;8.37;;;26.40;70.90;;;;;;5053206;28;20862;-71
2022/07/25 07:36:17;;;;;;;9.70;8.70;;;26.50;70.70;;;;;;5052158;28;20836;-72
2022/07/25 07:38:47;;;;;;;10.27;8.83;;;26.60;70.80;;;;;;5053050;28;20221;-71
2022/07/25 07:41:13;;;;;;;10.23;9.33;;;26.70;71.50;;;;;;5049287;28;20224;-71
2022/07/25 07:43:39;;;;;;;9.53;8.70;;;26.80;70.40;;;;;;5050862;28;21071;-71
2022/07/25 07:46:05;;;;;;;9.40;8.60;;;26.90;70.30;;;;;;5044464;28;20533;-71
2022/07/25 07:48:31;;;;;;;9.20;8.30;;;27.00;70.00;;;;;;5052766;28;20225;-72
2022/07/25 07:50:57;;;;;;;10.37;9.47;;;27.10;70.00;;;;;;5053530;28;20221;-71
2022/07/25 07:55:42;;;;;;;9.80;8.17;;;27.20;69.90;;;;;;5052785;28;20943;-71
2022/07/25 07:56:09;;;;;;;7.83;7.23;;;27.20;69.90;;;;;;5066675;28;20572;-71
2022/07/25 07:58:34;;;;;;;10.10;9.20;;;27.30;69.80;;;;;;5052903;28;20635;-72
2022/07/25 08:01:00;;;;;;;10.63;9.63;;;27.30;69.70;;;;;;5068724;28;20222;-71
2022/07/25 08:03:26;;;;;;;9.43;8.57;;;27.50;70.20;;;;;;5046877;28;20245;-71
2022/07/25 08:05:52;;;;;;;8.83;8.10;;;27.60;68.70;;;;;;5031753;28;20754;-72
2022/07/25 08:08:19;;;;;;;9.53;8.73;;;27.70;68.90;;;;;;5032347;28;20459;-71
2022/07/25 08:10:46;;;;;;;12.73;10.05;;;27.70;68.50;;;;;;5051397;28;20225;-72
2022/07/25 08:13:21;;;;;;;9.55;8.10;;;27.80;68.40;;;;;;5048473;28;20308;-71
2022/07/25 08:15:53;;;;;;;9.80;8.80;;;27.80;68.30;;;;;;5051736;28;20218;-71
2022/07/25 08:18:19;;;;;;;9.55;8.55;;;27.90;68.50;;;;;;5051222;28;20219;-72
2022/07/25 08:20:45;;;;;;;10.05;8.63;;;28.00;68.50;;;;;;5052093;28;20227;-71
2022/07/25 08:23:11;;;;;;;9.45;7.95;;;28.10;68.30;;;;;;5046896;28;20227;-72
2022/07/25 08:25:38;;;;;;;9.50;8.60;;;28.30;67.70;;;;;;5021077;28;20230;-70
2022/07/25 08:28:05;;;;;;;9.07;8.25;;;28.40;67.50;;;;;;5054687;28;20229;-71
2022/07/25 08:30:31;;;;;;;9.85;8.85;;;28.50;67.50;;;;;;5065317;28;20308;-69
2022/07/25 08:32:59;;;;;;;9.75;8.85;;;28.50;67.60;;;;;;5065878;28;20769;-69
2022/07/25 08:35:26;;;;;;;9.73;8.93;;;28.70;67.60;;;;;;5047222;28;20230;-69
2022/07/25 08:37:53;;;;;;;10.82;8.40;;;28.90;67.50;;;;;;5053290;28;20684;-69
2022/07/25 08:40:21;;;;;;;9.38;8.48;;;29.00;67.30;;;;;;5054251;28;20303;-69
2022/07/25 08:42:48;;;;;;;7.97;7.38;;;29.20;67.20;;;;;;5031957;28;20628;-69
2022/07/25 08:45:16;;;;;;;10.05;9.18;;;29.50;66.10;;;;;;5045325;28;20236;-68
2022/07/25 08:47:44;;;;;;;9.55;8.75;;;29.60;65.90;;;;;;5033755;28;20307;-69
2022/07/25 08:50:13;;;;;;;9.90;8.90;;;29.80;65.50;;;;;;5034854;28;20800;-69
2022/07/25 08:52:41;;;;;;;9.75;8.95;;;29.80;65.90;;;;;;5050636;28;20241;-69
2022/07/25 08:55:09;;;;;;;9.18;8.38;;;29.90;65.80;;;;;;5033756;28;20227;-69
2022/07/25 08:57:42;;;;;;;9.10;8.20;;;30.10;65.50;;;;;;5043199;28;20308;-69
2022/07/25 09:00:11;;;;;;;9.77;8.98;;;30.20;65.10;;;;;;5082746;28;20282;-69
2022/07/25 09:02:37;;;;;;;9.68;8.45;;;30.30;65.00;;;;;;5069741;28;20224;-69
2022/07/25 09:05:04;;;;;;;10.27;9.27;;;30.40;65.20;;;;;;5084076;28;20224;-70
2022/07/25 09:07:33;;;;;;;10.25;9.35;;;30.40;65.10;;;;;;5034002;28;20241;-70
2022/07/25 09:10:21;;;;;;;10.18;9.27;;;30.50;64.90;;;;;;5051924;28;20237;-70
2022/07/25 09:13:14;;;;;;;9.77;8.93;;;30.70;63.90;;;;;;5050357;28;20702;-70
2022/07/25 09:15:51;;;;;;;9.93;9.02;;;30.90;63.80;;;;;;5059384;28;20362;-70
2022/07/25 09:18:22;;;;;;;10.13;9.23;;;30.90;64.20;;;;;;5069241;28;20222;-70
2022/07/25 09:20:57;;;;;;;10.43;9.55;;;31.10;64.50;;;;;;5051887;28;20713;-70
2022/07/25 09:23:29;;;;;;;10.02;9.07;;;31.10;64.70;;;;;;5040540;28;20222;-70
2022/07/25 09:26:07;;;;;;;9.23;8.48;;;31.20;64.70;;;;;;5053544;28;20231;-70
2022/07/25 09:28:41;;;;;;;8.60;7.90;;;31.30;64.70;;;;;;5054651;28;20592;-70
2022/07/25 09:31:08;;;;;;;9.55;8.70;;;31.40;64.40;;;;;;5051878;28;20237;-70
2022/07/25 09:33:47;;;;;;;9.63;8.93;;;31.80;63.20;;;;;;5060673;28;20235;-71
2022/07/25 09:36:13;;;;;;;9.35;8.38;;;31.90;62.20;;;;;;5032167;28;20304;-70
2022/07/25 09:38:40;;;;;;;9.68;8.82;;;32.20;60.20;;;;;;5025709;28;20595;-71
2022/07/25 09:41:06;;;;;;;9.77;8.77;;;32.30;60.10;;;;;;5050128;28;20223;-70
2022/07/25 09:43:41;;;;;;;9.52;8.63;;;32.40;59.50;;;;;;5032038;28;20223;-70
2022/07/25 09:46:07;;;;;;;9.55;8.82;;;32.60;59.60;;;;;;5034819;28;20219;-70
2022/07/25 09:48:34;;;;;;;8.85;8.07;;;32.70;59.60;;;;;;5049399;28;20215;-70
2022/07/25 09:51:00;;;;;;;10.05;9.18;;;32.80;59.50;;;;;;5051046;28;20222;-71
2022/07/25 09:53:26;;;;;;;9.23;8.30;;;32.80;59.30;;;;;;5064633;28;20292;-71
2022/07/25 09:55:53;;;;;;;9.35;8.38;;;32.90;59.40;;;;;;5043818;28;20230;-70
2022/07/25 09:58:19;;;;;;;8.43;7.82;;;33.10;58.90;;;;;;5046317;28;20250;-70
2022/07/25 10:00:46;;;;;;;8.73;7.97;;;33.10;58.90;;;;;;5069167;28;20235;-70
2022/07/25 10:03:28;;;;;;;9.70;8.90;;;33.20;58.70;;;;;;5070903;28;20215;-70
2022/07/25 10:06:12;;;;;;;8.80;8.05;;;33.30;58.90;;;;;;5071769;28;20214;-69
2022/07/25 10:08:39;;;;;;;8.60;7.90;;;33.40;58.80;;;;;;5061199;28;20285;-71
2022/07/25 10:11:16;;;;;;;8.70;7.93;;;33.50;58.50;;;;;;5054701;28;20570;-70
2022/07/25 10:13:42;;;;;;;8.75;7.85;;;33.60;58.40;;;;;;5074223;28;20296;-71
2022/07/25 10:16:19;;;;;;;8.50;7.80;;;33.80;57.90;;;;;;5053901;28;20242;-71
2022/07/25 10:18:56;;;;;;;8.45;7.75;;;34.00;57.00;;;;;;5052260;28;20229;-69
2022/07/25 10:21:24;;;;;;;7.88;6.78;;;34.10;56.50;;;;;;5046832;28;20336;-70
2022/07/25 10:24:01;;;;;;;10.15;9.45;;;34.20;56.80;;;;;;5037022;28;20219;-70
2022/07/25 10:26:27;;;;;;;6.60;6.00;;;34.30;56.00;;;;;;5037706;28;20223;-71
2022/07/25 10:28:57;;;;;;;7.07;6.55;;;34.40;55.50;;;;;;5054188;28;20215;-71
2022/07/25 10:31:44;;;;;;;6.80;6.20;;;34.40;55.80;;;;;;5071983;28;20215;-71
2022/07/25 10:34:12;;;;;;;6.75;6.22;;;34.40;56.10;;;;;;5053641;28;20218;-70
2022/07/25 10:36:49;;;;;;;7.18;6.55;;;34.40;56.10;;;;;;5053870;28;20313;-70
2022/07/25 10:39:17;;;;;;;7.38;6.68;;;34.40;56.30;;;;;;5052803;28;20233;-70
2022/07/25 10:41:54;;;;;;;7.07;6.47;;;34.50;56.00;;;;;;5037122;28;20289;-69
2022/07/25 10:44:20;;;;;;;7.10;6.50;;;34.50;55.40;;;;;;5052465;28;20210;-70
2022/07/25 10:46:47;;;;;;;6.65;6.15;;;34.40;55.10;;;;;;5037019;28;20210;-71
2022/07/25 10:49:33;;;;;;;7.03;6.40;;;34.40;55.30;;;;;;5045529;28;20215;-70
2022/07/25 10:52:02;;;;;;;7.25;6.60;;;34.50;55.40;;;;;;5033841;28;20219;-70
2022/07/25 10:54:38;;;;;;;7.20;6.60;;;34.50;55.10;;;;;;5053174;28;20227;-70
2022/07/25 10:57:12;;;;;;;7.32;6.63;;;34.60;55.30;;;;;;5049872;28;20214;-70
2022/07/25 10:59:38;;;;;;;7.82;7.15;;;34.70;55.20;;;;;;5039186;28;20255;-71
2022/07/25 11:02:16;;;;;;;6.93;6.43;;;34.70;54.90;;;;;;5051501;28;20238;-70
2022/07/25 11:04:58;;;;;;;7.68;6.97;;;34.70;54.90;;;;;;5049473;28;20642;-70
2022/07/25 11:07:27;;;;;;;6.60;6.10;;;34.80;55.10;;;;;;5034053;28;20225;-71
2022/07/25 11:09:57;;;;;;;7.03;6.43;;;34.90;55.20;;;;;;5069503;28;20314;-71
2022/07/25 11:12:23;;;;;;;6.88;6.28;;;35.00;55.30;;;;;;5050266;28;20280;-70
2022/07/25 11:14:49;;;;;;;7.20;6.50;;;35.00;54.80;;;;;;5069998;28;20671;-70
2022/07/25 11:17:15;;;;;;;7.05;6.55;;;35.00;55.10;;;;;;5034880;28;20697;-70
2022/07/25 11:19:44;;;;;;;7.30;6.70;;;35.00;54.70;;;;;;5051113;28;20225;-70
2022/07/25 11:22:10;;;;;;;7.18;6.57;;;35.00;54.80;;;;;;5049612;28;20234;-71
2022/07/25 11:24:44;;;;;;;7.15;6.57;;;35.00;54.10;;;;;;5042423;28;20210;-69
2022/07/25 11:27:13;;;;;;;7.45;6.85;;;34.80;54.20;;;;;;5066449;28;20643;-70
2022/07/25 11:29:39;;;;;;;6.75;6.22;;;34.80;54.40;;;;;;5044347;28;20701;-70
2022/07/25 11:32:08;;;;;;;8.90;7.88;;;34.80;54.40;;;;;;5045016;28;20263;-70
2022/07/25 11:34:36;;;;;;;7.07;6.47;;;34.80;54.20;;;;;;5068019;28;20774;-70
2022/07/25 11:37:04;;;;;;;7.65;7.05;;;34.80;54.40;;;;;;5050945;28;20211;-70
2022/07/25 11:39:35;;;;;;;7.38;6.63;;;34.90;54.50;;;;;;5050748;28;20268;-70
2022/07/25 11:42:19;;;;;;;7.25;6.28;;;35.10;54.40;;;;;;5021075;28;20587;-70
2022/07/25 11:44:48;;;;;;;6.65;6.15;;;35.30;54.30;;;;;;5051920;28;20222;-70
2022/07/25 11:47:40;;;;;;;7.63;7.13;;;35.30;54.10;;;;;;5050578;28;20227;-72
2022/07/25 11:50:06;;;;;;;6.90;6.30;;;35.40;54.20;;;;;;5038095;28;20227;-70
2022/07/25 11:52:36;;;;;;;7.18;6.60;;;35.50;54.20;;;;;;5050759;28;20325;-71
2022/07/25 11:55:07;;;;;;;7.28;6.57;;;35.50;54.30;;;;;;5066807;28;20729;-71
2022/07/25 11:57:36;;;;;;;7.10;6.55;;;35.60;53.80;;;;;;5031988;28;20679;-70
2022/07/25 12:00:07;;;;;;;8.05;7.35;;;35.60;53.80;;;;;;5035613;28;20223;-70
2022/07/25 12:02:36;;;;;;;6.88;6.28;;;35.60;53.80;;;;;;5072233;28;20218;-71
2022/07/25 12:05:07;;;;;;;7.90;7.10;;;35.70;53.70;;;;;;5035399;28;20218;-70
2022/07/25 12:07:53;;;;;;;7.00;6.40;;;35.60;53.60;;;;;;5065850;28;20217;-71
2022/07/25 12:10:22;;;;;;;7.20;6.65;;;35.70;53.60;;;;;;5068471;28;20347;-71
2022/07/25 12:12:51;;;;;;;7.15;6.55;;;35.80;53.70;;;;;;5048594;28;20226;-70
2022/07/25 12:15:29;;;;;;;6.45;5.95;;;35.80;53.50;;;;;;5050190;28;20221;-70
2022/07/25 12:17:56;;;;;;;7.75;7.05;;;35.80;53.40;;;;;;5040913;28;20223;-70
2022/07/25 12:20:25;;;;;;;7.10;6.60;;;35.70;53.30;;;;;;5065207;28;20781;-70
2022/07/25 12:22:53;;;;;;;7.22;6.72;;;35.60;53.20;;;;;;5051219;28;20214;-71
2022/07/25 12:25:19;;;;;;;7.43;6.82;;;35.50;53.20;;;;;;5048455;28;20223;-70
2022/07/25 12:27:45;;;;;;;7.22;6.70;;;35.50;53.10;;;;;;5048842;28;20767;-71
2022/07/25 12:30:11;;;;;;;8.55;7.85;;;35.40;53.00;;;;;;5031923;28;20226;-72
2022/07/25 12:32:37;;;;;;;7.38;6.68;;;35.30;53.00;;;;;;5053963;28;20322;-70
2022/07/25 12:35:06;;;;;;;6.50;6.00;;;35.20;53.00;;;;;;5031202;28;20319;-70
2022/07/25 12:37:32;;;;;;;7.32;6.78;;;35.10;53.00;;;;;;5066819;28;20221;-71
2022/07/25 12:39:57;;;;;;;7.30;6.68;;;35.00;53.10;;;;;;5034360;28;20214;-70
2022/07/25 12:42:24;;;;;;;8.00;7.20;;;35.00;53.10;;;;;;5049416;28;20215;-70
2022/07/25 12:44:50;;;;;;;7.63;6.97;;;34.90;53.30;;;;;;5053059;28;20260;-70
2022/07/25 12:47:17;;;;;;;8.25;7.65;;;34.80;53.80;;;;;;5032965;28;20227;-70